createdAt,value
2018-09-10T00:00:12.492Z,0
2018-09-10T00:01:21.677Z,0
2018-09-10T00:02:31.363Z,0
2018-09-10T00:03:40.794Z,0
2018-09-10T00:04:49.995Z,0
2018-09-10T00:05:58.979Z,0
2018-09-10T00:07:08.417Z,0
2018-09-10T00:08:17.116Z,0
2018-09-10T00:09:26.849Z,0
2018-09-10T00:10:36.045Z,0
2018-09-10T00:11:45.235Z,0
2018-09-10T00:12:54.219Z,0
2018-09-10T00:14:03.389Z,0
2018-09-10T00:15:13.345Z,0
2018-09-10T00:16:22.779Z,0
2018-09-10T00:17:31.945Z,0
2018-09-10T00:18:40.852Z,0
2018-09-10T00:19:50.813Z,0
2018-09-10T00:21:00.248Z,0
2018-09-10T00:22:10.207Z,0
2018-09-10T00:23:19.641Z,0
2018-09-10T00:24:29.080Z,0
2018-09-10T00:25:38.775Z,0
2018-09-10T00:26:47.998Z,0
2018-09-10T00:27:57.429Z,0
2018-09-10T00:29:06.912Z,0
2018-09-10T00:30:16.096Z,0
2018-09-10T00:31:26.216Z,0
2018-09-10T00:32:35.645Z,0
2018-09-10T00:33:45.369Z,0
2018-09-10T00:34:55.149Z,0
2018-09-10T00:36:04.853Z,0
2018-09-10T00:37:14.561Z,0
2018-09-10T00:38:24.249Z,0
2018-09-10T00:39:33.199Z,0
2018-09-10T00:40:42.890Z,0
2018-09-10T00:41:52.049Z,0
2018-09-10T00:43:01.244Z,0
2018-09-10T00:44:10.688Z,0
2018-09-10T00:45:20.395Z,0
2018-09-10T00:46:29.572Z,0
2018-09-10T00:47:39.315Z,0
2018-09-10T00:48:48.542Z,0
2018-09-10T00:49:58.219Z,0
2018-09-10T00:51:07.671Z,0
2018-09-10T00:52:16.852Z,0
2018-09-10T00:53:26.532Z,0
2018-09-10T00:54:35.727Z,0
2018-09-10T00:55:45.173Z,0
2018-09-10T00:56:54.349Z,0
2018-09-10T00:58:03.254Z,0
2018-09-10T00:59:12.451Z,0
2018-09-10T01:00:22.161Z,0
2018-09-10T01:01:32.536Z,0
2018-09-10T01:02:41.719Z,0
2018-09-10T01:03:50.891Z,0
2018-09-10T01:05:00.309Z,0
2018-09-10T01:06:10.016Z,0
2018-09-10T01:07:18.941Z,0
2018-09-10T01:08:28.105Z,0
2018-09-10T01:09:37.815Z,0
2018-09-10T01:10:46.980Z,0
2018-09-10T01:11:56.417Z,0
2018-09-10T01:13:05.873Z,0
2018-09-10T01:14:15.546Z,0
2018-09-10T01:15:25.220Z,0
2018-09-10T01:16:34.645Z,0
2018-09-10T01:17:43.835Z,0
2018-09-10T01:18:53.262Z,0
2018-09-10T01:20:02.951Z,0
2018-09-10T01:21:12.893Z,0
2018-09-10T01:22:22.361Z,0
2018-09-10T01:23:31.776Z,0
2018-09-10T01:24:41.731Z,0
2018-09-10T01:25:51.159Z,0
2018-09-10T01:27:00.302Z,0
2018-09-10T01:28:09.763Z,0
2018-09-10T01:29:19.174Z,0
2018-09-10T01:30:28.335Z,0
2018-09-10T01:31:37.751Z,0
2018-09-10T01:32:47.232Z,0
2018-09-10T01:33:56.393Z,0
2018-09-10T01:35:05.599Z,0
2018-09-10T01:36:15.299Z,0
2018-09-10T01:37:23.943Z,0
2018-09-10T01:38:33.098Z,0
2018-09-10T01:39:42.835Z,0
2018-09-10T01:40:52.272Z,0
2018-09-10T01:42:01.468Z,0
2018-09-10T01:43:11.144Z,0
2018-09-10T01:44:20.646Z,0
2018-09-10T01:45:30.337Z,0
2018-09-10T01:46:39.765Z,0
2018-09-10T01:47:48.686Z,0
2018-09-10T01:48:58.124Z,0
2018-09-10T01:50:07.623Z,0
2018-09-10T01:51:17.560Z,0
2018-09-10T01:52:26.993Z,0
2018-09-10T01:53:35.913Z,0
2018-09-10T01:54:45.353Z,0
2018-09-10T01:55:55.039Z,0
2018-09-10T01:57:03.953Z,0
2018-09-10T01:58:13.813Z,0
2018-09-10T01:59:23.240Z,0
2018-09-10T02:00:32.664Z,0
2018-09-10T02:01:42.339Z,0
2018-09-10T02:02:51.754Z,0
2018-09-10T02:04:01.183Z,0
2018-09-10T02:05:10.096Z,0
2018-09-10T02:06:19.521Z,0
2018-09-10T02:07:29.265Z,0
2018-09-10T02:08:38.704Z,0
2018-09-10T02:09:48.422Z,0
2018-09-10T02:10:58.354Z,0
2018-09-10T02:12:07.772Z,0
2018-09-10T02:13:16.952Z,0
2018-09-10T02:14:26.399Z,0
2018-09-10T02:15:36.119Z,0
2018-09-10T02:16:45.297Z,0
2018-09-10T02:17:54.210Z,0
2018-09-10T02:19:03.639Z,0
2018-09-10T02:20:13.479Z,0
2018-09-10T02:21:22.390Z,0
2018-09-10T02:22:31.828Z,0
2018-09-10T02:23:41.625Z,0
2018-09-10T02:24:51.534Z,0
2018-09-10T02:26:00.765Z,0
2018-09-10T02:27:10.206Z,0
2018-09-10T02:28:19.726Z,0
2018-09-10T02:31:10.605Z,0
2018-09-10T02:32:20.037Z,0
2018-09-10T02:33:29.747Z,0
2018-09-10T02:34:39.441Z,0
2018-09-10T02:35:49.403Z,0
2018-09-10T02:36:58.821Z,0
2018-09-10T02:38:08.501Z,0
2018-09-10T02:39:18.245Z,0
2018-09-10T02:40:27.964Z,0
2018-09-10T02:41:37.941Z,0
2018-09-10T02:42:47.127Z,0
2018-09-10T02:43:56.540Z,0
2018-09-10T02:45:05.477Z,0
2018-09-10T02:46:14.902Z,0
2018-09-10T02:47:24.335Z,0
2018-09-10T02:48:33.515Z,0
2018-09-10T02:49:43.211Z,0
2018-09-10T02:50:52.637Z,0
2018-09-10T02:52:02.070Z,0
2018-09-10T02:53:12.059Z,0
2018-09-10T02:54:20.984Z,0
2018-09-10T02:55:30.405Z,0
2018-09-10T02:56:39.834Z,0
2018-09-10T02:57:49.265Z,0
2018-09-10T02:58:58.703Z,0
2018-09-10T03:00:08.431Z,0
2018-09-10T03:01:17.651Z,0
2018-09-10T03:02:27.329Z,0
2018-09-10T03:03:36.741Z,0
2018-09-10T03:04:46.169Z,0
2018-09-10T03:05:55.344Z,0
2018-09-10T03:07:04.764Z,0
2018-09-10T03:08:14.181Z,0
2018-09-10T03:09:23.880Z,0
2018-09-10T03:10:33.401Z,0
2018-09-10T03:11:42.555Z,0
2018-09-10T03:12:51.973Z,0
2018-09-10T03:14:01.133Z,0
2018-09-10T03:15:10.818Z,0
2018-09-10T03:16:19.762Z,0
2018-09-10T03:17:28.965Z,0
2018-09-10T03:18:38.403Z,0
2018-09-10T03:19:47.063Z,0
2018-09-10T03:20:56.484Z,0
2018-09-10T03:22:06.182Z,0
2018-09-10T03:23:14.835Z,0
2018-09-10T03:24:24.547Z,0
2018-09-10T03:25:33.702Z,0
2018-09-10T03:26:43.379Z,0
2018-09-10T03:27:52.803Z,0
2018-09-10T03:29:01.784Z,0
2018-09-10T03:30:11.196Z,0
2018-09-10T03:31:20.628Z,0
2018-09-10T03:32:30.338Z,0
2018-09-10T03:33:40.674Z,0
2018-09-10T03:34:50.768Z,0
2018-09-10T03:36:00.219Z,0
2018-09-10T03:37:09.146Z,0
2018-09-10T03:38:19.087Z,0
2018-09-10T03:39:28.515Z,0
2018-09-10T03:40:37.962Z,0
2018-09-10T03:41:47.443Z,0
2018-09-10T03:42:57.212Z,0
2018-09-10T03:44:06.661Z,0
2018-09-10T03:45:16.084Z,0
2018-09-10T03:46:24.999Z,0
2018-09-10T03:47:34.939Z,0
2018-09-10T03:48:44.154Z,0
2018-09-10T03:49:53.833Z,0
2018-09-10T03:51:03.517Z,0
2018-09-10T03:52:12.736Z,0
2018-09-10T03:53:22.183Z,0
2018-09-10T03:54:31.878Z,0
2018-09-10T03:55:41.047Z,0
2018-09-10T03:56:50.832Z,0
2018-09-10T03:58:00.776Z,0
2018-09-10T03:59:10.734Z,0
2018-09-10T04:00:20.444Z,0
2018-09-10T04:01:30.148Z,0
2018-09-10T04:02:39.835Z,0
2018-09-10T04:03:49.263Z,0
2018-09-10T04:04:58.442Z,0
2018-09-10T04:06:08.137Z,0
2018-09-10T04:07:17.854Z,0
2018-09-10T04:08:27.037Z,0
2018-09-10T04:09:36.450Z,0
2018-09-10T04:10:45.928Z,0
2018-09-10T04:11:55.608Z,0
2018-09-10T04:13:05.042Z,0
2018-09-10T04:14:14.741Z,0
2018-09-10T04:15:24.501Z,0
2018-09-10T04:16:33.677Z,0
2018-09-10T04:17:43.113Z,0
2018-09-10T04:18:52.557Z,0
2018-09-10T04:20:01.766Z,0
2018-09-10T04:21:11.724Z,0
2018-09-10T04:22:21.420Z,0
2018-09-10T04:23:30.612Z,0
2018-09-10T04:24:40.108Z,0
2018-09-10T04:25:49.633Z,0
2018-09-10T04:26:58.625Z,0
2018-09-10T04:28:08.106Z,0
2018-09-10T04:29:18.499Z,0
2018-09-10T04:30:27.950Z,0
2018-09-10T04:31:37.661Z,0
2018-09-10T04:32:47.599Z,0
2018-09-10T04:33:56.776Z,0
2018-09-10T04:35:06.194Z,0
2018-09-10T04:36:16.513Z,0
2018-09-10T04:37:26.500Z,0
2018-09-10T04:38:36.193Z,0
2018-09-10T04:39:45.875Z,0
2018-09-10T04:40:55.117Z,0
2018-09-10T04:42:05.076Z,0
2018-09-10T04:43:14.528Z,0
2018-09-10T04:44:23.966Z,0
2018-09-10T04:45:33.666Z,0
2018-09-10T04:46:43.368Z,0
2018-09-10T04:47:52.553Z,0
2018-09-10T04:49:02.237Z,0
2018-09-10T04:50:11.393Z,0
2018-09-10T04:51:21.094Z,0
2018-09-10T04:52:30.279Z,0
2018-09-10T04:53:39.469Z,0
2018-09-10T04:54:48.657Z,0
2018-09-10T04:55:58.099Z,0
2018-09-10T04:57:07.766Z,0
2018-09-10T04:58:18.244Z,0
2018-09-10T04:59:27.955Z,0
2018-09-10T05:00:37.130Z,0
2018-09-10T05:01:46.829Z,0
2018-09-10T05:02:55.990Z,0
2018-09-10T05:04:05.686Z,0
2018-09-10T05:05:15.112Z,0
2018-09-10T05:06:24.787Z,0
2018-09-10T05:07:34.509Z,0
2018-09-10T05:08:44.211Z,0
2018-09-10T05:09:54.057Z,0
2018-09-10T05:11:03.992Z,0
2018-09-10T05:12:13.659Z,0
2018-09-10T05:13:23.619Z,0
2018-09-10T05:14:32.547Z,0
2018-09-10T05:15:41.724Z,0
2018-09-10T05:16:51.668Z,0
2018-09-10T05:18:01.393Z,0
2018-09-10T05:19:11.334Z,0
2018-09-10T05:20:21.288Z,0
2018-09-10T05:21:30.973Z,0
2018-09-10T05:22:40.648Z,0
2018-09-10T05:23:50.625Z,0
2018-09-10T05:24:59.619Z,0
2018-09-10T05:26:09.159Z,0
2018-09-10T05:27:18.860Z,0
2018-09-10T05:28:28.823Z,0
2018-09-10T05:29:38.765Z,0
2018-09-10T05:30:47.690Z,0
2018-09-10T05:31:57.165Z,0
2018-09-10T05:33:07.275Z,0
2018-09-10T05:34:16.743Z,0
2018-09-10T05:35:26.867Z,0
2018-09-10T05:36:36.612Z,0
2018-09-10T05:37:46.309Z,0
2018-09-10T05:38:55.727Z,0
2018-09-10T05:40:05.413Z,0
2018-09-10T05:41:14.593Z,0
2018-09-10T05:42:24.270Z,0
2018-09-10T05:43:33.976Z,0
2018-09-10T05:44:43.444Z,0
2018-09-10T05:45:53.121Z,0
2018-09-10T05:47:02.120Z,4
2018-09-10T05:48:11.578Z,4
2018-09-10T05:49:21.537Z,4
2018-09-10T05:50:31.221Z,4
2018-09-10T05:51:40.712Z,4
2018-09-10T05:52:50.396Z,4
2018-09-10T05:53:59.821Z,4
2018-09-10T05:55:08.744Z,4
2018-09-10T05:56:18.428Z,4
2018-09-10T05:57:28.397Z,0
2018-09-10T05:58:37.587Z,0
2018-09-10T05:59:46.766Z,0
2018-09-10T06:00:55.944Z,0
2018-09-10T06:02:05.387Z,0
2018-09-10T06:03:15.078Z,0
2018-09-10T06:04:24.759Z,0
2018-09-10T06:05:34.444Z,0
2018-09-10T06:06:44.141Z,0
2018-09-10T06:07:54.000Z,4
2018-09-10T06:09:04.000Z,4
2018-09-10T06:10:13.002Z,4
2018-09-10T06:11:22.714Z,4
2018-09-10T06:12:32.174Z,0
2018-09-10T06:13:41.605Z,0
2018-09-10T06:14:50.801Z,4
2018-09-10T06:16:00.235Z,4
2018-09-10T06:17:10.207Z,4
2018-09-10T06:18:19.892Z,4
2018-09-10T06:19:29.066Z,4
2018-09-10T06:20:38.239Z,4
2018-09-10T06:21:47.684Z,4
2018-09-10T06:22:57.501Z,4
2018-09-10T06:24:06.414Z,4
2018-09-10T06:25:16.135Z,4
2018-09-10T06:26:25.829Z,4
2018-09-10T06:27:35.546Z,4
2018-09-10T06:28:45.226Z,4
2018-09-10T06:29:54.730Z,4
2018-09-10T06:31:03.902Z,4
2018-09-10T06:32:13.331Z,0
2018-09-10T06:33:23.449Z,4
2018-09-10T06:34:32.883Z,4
2018-09-10T06:35:42.145Z,4
2018-09-10T06:36:51.330Z,4
2018-09-10T06:38:00.244Z,4
2018-09-10T06:39:09.698Z,0
2018-09-10T06:40:19.424Z,0
2018-09-10T06:41:28.861Z,4
2018-09-10T06:42:38.315Z,4
2018-09-10T06:43:47.489Z,4
2018-09-10T06:44:57.166Z,4
2018-09-10T06:46:06.362Z,4
2018-09-10T06:47:15.529Z,4
2018-09-10T06:48:25.230Z,4
2018-09-10T06:49:34.420Z,4
2018-09-10T06:50:43.644Z,4
2018-09-10T06:51:53.353Z,4
2018-09-10T06:53:03.051Z,4
2018-09-10T06:54:12.501Z,4
2018-09-10T06:55:22.236Z,4
2018-09-10T06:56:31.698Z,4
2018-09-10T06:57:41.009Z,4
2018-09-10T06:58:50.788Z,4
2018-09-10T07:00:00.251Z,4
2018-09-10T07:01:09.740Z,8
2018-09-10T07:02:19.759Z,8
2018-09-10T07:03:29.781Z,8
2018-09-10T07:04:39.569Z,8
2018-09-10T07:05:48.561Z,4
2018-09-10T07:06:58.080Z,4
2018-09-10T07:08:07.842Z,4
2018-09-10T07:09:17.345Z,8
2018-09-10T07:10:26.810Z,8
2018-09-10T07:11:36.276Z,8
2018-09-10T07:12:46.175Z,8
2018-09-10T07:13:56.052Z,8
2018-09-10T07:15:05.540Z,4
2018-09-10T07:16:15.278Z,4
2018-09-10T07:17:24.754Z,8
2018-09-10T07:18:34.695Z,8
2018-09-10T07:19:44.877Z,8
2018-09-10T07:20:53.895Z,8
2018-09-10T07:22:03.447Z,8
2018-09-10T07:23:12.911Z,8
2018-09-10T07:24:22.679Z,8
2018-09-10T07:25:32.323Z,12
2018-09-10T07:26:41.564Z,8
2018-09-10T07:27:50.779Z,8
2018-09-10T07:29:00.989Z,8
2018-09-10T07:30:10.968Z,12
2018-09-10T07:31:20.178Z,12
2018-09-10T07:32:29.421Z,12
2018-09-10T07:33:39.178Z,8
2018-09-10T07:34:48.744Z,8
2018-09-10T07:35:57.953Z,8
2018-09-10T07:37:07.702Z,8
2018-09-10T07:38:17.187Z,8
2018-09-10T07:39:26.930Z,8
2018-09-10T07:40:36.424Z,8
2018-09-10T07:41:45.637Z,8
2018-09-10T07:42:55.392Z,8
2018-09-10T07:44:04.165Z,12
2018-09-10T07:45:14.052Z,12
2018-09-10T07:46:23.801Z,12
2018-09-10T07:47:32.768Z,12
2018-09-10T07:48:41.978Z,12
2018-09-10T07:49:51.777Z,12
2018-09-10T07:51:00.940Z,12
2018-09-10T07:52:10.660Z,16
2018-09-10T07:53:20.675Z,12
2018-09-10T07:54:30.274Z,12
2018-09-10T07:55:39.472Z,12
2018-09-10T07:56:48.942Z,16
2018-09-10T07:57:59.410Z,16
2018-09-10T07:59:08.926Z,12
2018-09-10T08:00:19.004Z,16
2018-09-10T08:01:28.521Z,12
2018-09-10T08:02:38.041Z,16
2018-09-10T08:03:47.818Z,16
2018-09-10T08:04:57.550Z,16
2018-09-10T08:06:07.342Z,12
2018-09-10T08:07:16.875Z,12
2018-09-10T08:08:26.925Z,8
2018-09-10T08:09:36.058Z,12
2018-09-10T08:10:46.029Z,12
2018-09-10T08:11:55.540Z,12
2018-09-10T08:13:04.918Z,8
2018-09-10T08:14:14.652Z,12
2018-09-10T08:15:24.410Z,8
2018-09-10T08:16:34.143Z,12
2018-09-10T08:17:44.134Z,12
2018-09-10T08:18:53.428Z,16
2018-09-10T08:20:02.918Z,12
2018-09-10T08:21:12.151Z,16
2018-09-10T08:22:21.093Z,16
2018-09-10T08:23:30.593Z,12
2018-09-10T08:24:40.973Z,20
2018-09-10T08:25:50.019Z,24
2018-09-10T08:26:59.506Z,24
2018-09-10T08:28:08.732Z,16
2018-09-10T08:29:18.032Z,20
2018-09-10T08:30:27.426Z,16
2018-09-10T08:31:37.285Z,20
2018-09-10T08:32:47.284Z,16
2018-09-10T08:33:57.317Z,16
2018-09-10T08:35:06.601Z,24
2018-09-10T08:36:16.104Z,28
2018-09-10T08:37:25.835Z,32
2018-09-10T08:38:35.396Z,28
2018-09-10T08:39:45.161Z,28
2018-09-10T08:40:54.666Z,24
2018-09-10T08:42:04.441Z,24
2018-09-10T08:43:13.739Z,20
2018-09-10T08:44:22.956Z,24
2018-09-10T08:45:32.962Z,24
2018-09-10T08:46:42.752Z,20
2018-09-10T08:47:52.519Z,20
2018-09-10T08:49:02.318Z,20
2018-09-10T08:50:12.320Z,20
2018-09-10T08:51:22.118Z,16
2018-09-10T08:52:31.867Z,16
2018-09-10T08:53:41.093Z,16
2018-09-10T08:54:52.224Z,24
2018-09-10T08:56:02.600Z,32
2018-09-10T08:57:11.713Z,24
2018-09-10T08:58:21.163Z,20
2018-09-10T08:59:30.584Z,28
2018-09-10T09:00:40.178Z,28
2018-09-10T09:01:50.650Z,24
2018-09-10T09:02:59.915Z,20
2018-09-10T09:04:09.342Z,16
2018-09-10T09:05:19.074Z,16
2018-09-10T09:06:28.791Z,24
2018-09-10T09:07:38.217Z,20
2018-09-10T09:08:47.668Z,20
2018-09-10T09:09:57.117Z,24
2018-09-10T09:11:06.668Z,24
2018-09-10T09:12:15.849Z,24
2018-09-10T09:13:25.023Z,32
2018-09-10T09:14:34.478Z,24
2018-09-10T09:15:43.656Z,24
2018-09-10T09:16:53.379Z,32
2018-09-10T09:18:02.824Z,28
2018-09-10T09:19:12.517Z,28
2018-09-10T09:20:22.557Z,28
2018-09-10T09:21:32.241Z,28
2018-09-10T09:22:41.476Z,24
2018-09-10T09:23:50.926Z,28
2018-09-10T09:25:00.619Z,24
2018-09-10T09:26:10.063Z,24
2018-09-10T09:27:19.497Z,24
2018-09-10T09:28:28.920Z,24
2018-09-10T09:29:38.723Z,20
2018-09-10T09:30:48.300Z,24
2018-09-10T09:31:57.494Z,36
2018-09-10T09:33:07.373Z,24
2018-09-10T09:34:16.302Z,32
2018-09-10T09:35:25.539Z,32
2018-09-10T09:36:34.717Z,32
2018-09-10T09:37:44.158Z,36
2018-09-10T09:38:53.627Z,32
2018-09-10T09:40:03.078Z,32
2018-09-10T09:41:12.508Z,32
2018-09-10T09:42:21.710Z,32
2018-09-10T09:43:31.485Z,32
2018-09-10T09:44:40.984Z,28
2018-09-10T09:45:50.528Z,32
2018-09-10T09:46:59.969Z,32
2018-09-10T09:48:09.174Z,32
2018-09-10T09:49:18.614Z,28
2018-09-10T09:50:27.779Z,24
2018-09-10T09:51:36.978Z,28
2018-09-10T09:52:45.965Z,24
2018-09-10T09:53:55.243Z,24
2018-09-10T09:55:04.428Z,28
2018-09-10T09:56:14.123Z,28
2018-09-10T09:57:23.548Z,28
2018-09-10T09:58:33.128Z,24
2018-09-10T09:59:42.316Z,20
2018-09-10T10:00:52.020Z,20
2018-09-10T10:02:00.935Z,24
2018-09-10T10:03:10.432Z,28
2018-09-10T10:04:20.242Z,32
2018-09-10T10:05:30.090Z,32
2018-09-10T10:06:39.797Z,28
2018-09-10T10:07:49.488Z,32
2018-09-10T10:08:59.491Z,28
2018-09-10T10:10:08.485Z,32
2018-09-10T10:11:18.304Z,28
2018-09-10T10:12:28.178Z,28
2018-09-10T10:13:37.181Z,20
2018-09-10T10:14:46.629Z,28
2018-09-10T10:15:56.308Z,32
2018-09-10T10:17:06.019Z,24
2018-09-10T10:18:15.187Z,36
2018-09-10T10:19:25.124Z,32
2018-09-10T10:20:34.792Z,32
2018-09-10T10:21:44.249Z,32
2018-09-10T10:22:53.411Z,28
2018-09-10T10:24:02.332Z,32
2018-09-10T10:25:11.527Z,32
2018-09-10T10:26:20.976Z,28
2018-09-10T10:27:29.648Z,32
2018-09-10T10:28:39.095Z,36
2018-09-10T10:29:48.525Z,32
2018-09-10T10:30:57.442Z,32
2018-09-10T10:32:06.371Z,32
2018-09-10T10:33:16.044Z,28
2018-09-10T10:34:25.812Z,24
2018-09-10T10:35:34.728Z,28
2018-09-10T10:36:43.902Z,28
2018-09-10T10:37:53.572Z,32
2018-09-10T10:39:02.515Z,28
2018-09-10T10:40:11.723Z,28
2018-09-10T10:41:21.690Z,32
2018-09-10T10:42:31.394Z,20
2018-09-10T10:43:40.570Z,20
2018-09-10T10:44:50.301Z,32
2018-09-10T10:45:59.985Z,32
2018-09-10T10:47:09.663Z,28
2018-09-10T10:48:19.092Z,28
2018-09-10T10:49:28.251Z,20
2018-09-10T10:50:37.428Z,20
2018-09-10T10:51:46.857Z,16
2018-09-10T10:52:56.083Z,20
2018-09-10T10:54:06.045Z,36
2018-09-10T10:55:15.476Z,32
2018-09-10T10:56:25.443Z,16
2018-09-10T10:57:34.916Z,28
2018-09-10T10:58:44.364Z,32
2018-09-10T10:59:54.042Z,28
2018-09-10T11:01:03.473Z,28
2018-09-10T11:02:13.177Z,24
2018-09-10T11:03:22.911Z,28
2018-09-10T11:04:31.847Z,24
2018-09-10T11:05:41.872Z,24
2018-09-10T11:06:51.561Z,28
2018-09-10T11:08:01.034Z,32
2018-09-10T11:09:10.721Z,32
2018-09-10T11:10:20.670Z,36
2018-09-10T11:11:30.620Z,24
2018-09-10T11:12:39.915Z,16
2018-09-10T11:13:49.349Z,16
2018-09-10T11:14:59.301Z,16
2018-09-10T11:16:08.750Z,20
2018-09-10T11:17:18.175Z,16
2018-09-10T11:18:27.606Z,20
2018-09-10T11:19:37.056Z,24
2018-09-10T11:20:46.789Z,24
2018-09-10T11:21:56.227Z,28
2018-09-10T11:23:05.916Z,24
2018-09-10T11:24:15.865Z,32
2018-09-10T11:25:25.297Z,20
2018-09-10T11:26:34.761Z,20
2018-09-10T11:27:44.906Z,16
2018-09-10T11:28:54.453Z,16
2018-09-10T11:30:04.163Z,24
2018-09-10T11:31:13.393Z,20
2018-09-10T11:32:22.644Z,20
2018-09-10T11:33:32.130Z,20
2018-09-10T11:34:42.100Z,16
2018-09-10T11:35:51.597Z,16
2018-09-10T11:37:01.294Z,16
2018-09-10T11:38:10.842Z,16
2018-09-10T11:39:20.577Z,20
2018-09-10T11:40:30.048Z,20
2018-09-10T11:41:39.816Z,20
2018-09-10T11:42:49.632Z,20
2018-09-10T11:43:59.650Z,16
2018-09-10T11:45:08.925Z,16
2018-09-10T11:46:18.721Z,16
2018-09-10T11:47:28.180Z,16
2018-09-10T11:48:37.121Z,20
2018-09-10T11:49:46.579Z,20
2018-09-10T11:50:56.335Z,16
2018-09-10T11:52:05.816Z,16
2018-09-10T11:53:15.591Z,16
2018-09-10T11:54:25.345Z,16
2018-09-10T11:55:35.412Z,16
2018-09-10T11:56:45.350Z,16
2018-09-10T11:57:55.114Z,16
2018-09-10T11:59:04.337Z,20
2018-09-10T12:00:13.813Z,20
2018-09-10T12:01:23.656Z,20
2018-09-10T12:02:32.615Z,24
2018-09-10T12:03:42.168Z,24
2018-09-10T12:04:51.683Z,24
2018-09-10T12:06:01.167Z,24
2018-09-10T12:07:10.345Z,24
2018-09-10T12:08:19.538Z,24
2018-09-10T12:09:29.044Z,28
2018-09-10T12:10:38.806Z,24
2018-09-10T12:11:48.240Z,24
2018-09-10T12:12:57.414Z,28
2018-09-10T12:14:06.588Z,24
2018-09-10T12:15:16.019Z,24
2018-09-10T12:16:25.198Z,24
2018-09-10T12:17:34.894Z,24
2018-09-10T12:18:44.348Z,24
2018-09-10T12:19:53.789Z,28
2018-09-10T12:21:03.609Z,24
2018-09-10T12:22:13.398Z,24
2018-09-10T12:23:23.078Z,20
2018-09-10T12:24:32.784Z,20
2018-09-10T12:25:42.479Z,20
2018-09-10T12:26:51.399Z,24
2018-09-10T12:28:00.561Z,24
2018-09-10T12:29:09.520Z,20
2018-09-10T12:30:18.943Z,20
2018-09-10T12:31:28.637Z,20
2018-09-10T12:32:38.556Z,20
2018-09-10T12:33:47.462Z,20
2018-09-10T12:34:56.370Z,20
2018-09-10T12:36:05.555Z,20
2018-09-10T12:37:15.000Z,20
2018-09-10T12:38:24.958Z,16
2018-09-10T12:39:34.633Z,20
2018-09-10T12:40:44.121Z,16
2018-09-10T12:41:53.556Z,20
2018-09-10T12:43:02.484Z,24
2018-09-10T12:44:11.937Z,16
2018-09-10T12:45:21.612Z,16
2018-09-10T12:46:32.029Z,12
2018-09-10T12:47:41.352Z,12
2018-09-10T12:48:50.466Z,12
2018-09-10T12:49:59.894Z,16
2018-09-10T12:51:09.324Z,16
2018-09-10T12:52:18.517Z,16
2018-09-10T12:53:28.482Z,12
2018-09-10T12:54:38.177Z,12
2018-09-10T12:55:48.136Z,16
2018-09-10T12:56:57.075Z,16
2018-09-10T12:58:06.271Z,16
2018-09-10T12:59:15.505Z,16
2018-09-10T13:00:25.192Z,12
2018-09-10T13:01:34.888Z,12
2018-09-10T13:02:44.579Z,16
2018-09-10T13:03:54.027Z,16
2018-09-10T13:05:03.704Z,16
2018-09-10T13:06:13.703Z,12
2018-09-10T13:07:22.713Z,16
2018-09-10T13:08:31.883Z,16
2018-09-10T13:09:41.313Z,20
2018-09-10T13:10:51.061Z,20
2018-09-10T13:12:00.741Z,20
2018-09-10T13:13:10.188Z,20
2018-09-10T13:14:19.357Z,24
2018-09-10T13:15:28.270Z,32
2018-09-10T13:16:37.697Z,28
2018-09-10T13:17:47.152Z,24
2018-09-10T13:18:56.329Z,16
2018-09-10T13:20:05.517Z,12
2018-09-10T13:21:15.220Z,12
2018-09-10T13:22:24.647Z,12
2018-09-10T13:23:33.878Z,12
2018-09-10T13:24:43.072Z,12
2018-09-10T13:25:52.770Z,12
2018-09-10T13:27:01.959Z,12
2018-09-10T13:28:11.691Z,16
2018-09-10T13:29:21.114Z,16
2018-09-10T13:30:30.834Z,16
2018-09-10T13:31:40.013Z,16
2018-09-10T13:32:49.519Z,16
2018-09-10T13:33:58.972Z,20
2018-09-10T13:35:08.176Z,16
2018-09-10T13:36:18.119Z,16
2018-09-10T13:37:27.302Z,20
2018-09-10T13:38:37.021Z,20
2018-09-10T13:39:46.765Z,16
2018-09-10T13:40:56.460Z,16
2018-09-10T13:42:06.393Z,16
2018-09-10T13:43:16.097Z,24
2018-09-10T13:44:25.671Z,20
2018-09-10T13:45:35.072Z,20
2018-09-10T13:46:44.583Z,12
2018-09-10T13:47:54.256Z,12
2018-09-10T13:49:03.437Z,16
2018-09-10T13:50:13.115Z,16
2018-09-10T13:51:22.840Z,16
2018-09-10T13:52:32.581Z,16
2018-09-10T13:53:42.266Z,20
2018-09-10T13:54:51.189Z,20
2018-09-10T13:56:00.637Z,16
2018-09-10T13:57:10.081Z,24
2018-09-10T13:58:19.535Z,20
2018-09-10T13:59:28.963Z,20
2018-09-10T14:00:38.695Z,20
2018-09-10T14:01:48.135Z,24
2018-09-10T14:02:57.047Z,20
2018-09-10T14:04:06.755Z,20
2018-09-10T14:05:16.191Z,16
2018-09-10T14:06:25.860Z,16
2018-09-10T14:07:35.268Z,16
2018-09-10T14:08:44.701Z,16
2018-09-10T14:09:54.179Z,16
2018-09-10T14:11:03.904Z,20
2018-09-10T14:12:13.375Z,16
2018-09-10T14:13:23.370Z,12
2018-09-10T14:14:32.839Z,16
2018-09-10T14:15:42.277Z,12
2018-09-10T14:16:51.737Z,12
2018-09-10T14:18:00.920Z,12
2018-09-10T14:19:10.111Z,12
2018-09-10T14:20:19.854Z,12
2018-09-10T14:21:29.580Z,12
2018-09-10T14:22:39.314Z,12
2018-09-10T14:23:48.784Z,8
2018-09-10T14:24:58.511Z,8
2018-09-10T14:26:07.983Z,8
2018-09-10T14:27:17.686Z,12
2018-09-10T14:28:28.221Z,8
2018-09-10T14:29:38.064Z,8
2018-09-10T14:30:47.536Z,8
2018-09-10T14:31:57.022Z,8
2018-09-10T14:33:06.758Z,8
2018-09-10T14:34:16.481Z,4
2018-09-10T14:35:25.687Z,8
2018-09-10T14:36:35.134Z,8
2018-09-10T14:37:45.110Z,8
2018-09-10T14:38:54.554Z,8
2018-09-10T14:40:04.300Z,8
2018-09-10T14:41:13.747Z,8
2018-09-10T14:42:23.475Z,8
2018-09-10T14:43:33.514Z,8
2018-09-10T14:44:43.559Z,8
2018-09-10T14:45:53.054Z,8
2018-09-10T14:47:02.828Z,8
2018-09-10T14:48:13.313Z,8
2018-09-10T14:49:23.631Z,8
2018-09-10T14:50:33.393Z,8
2018-09-10T14:51:43.349Z,4
2018-09-10T14:52:53.180Z,8
2018-09-10T14:54:02.437Z,8
2018-09-10T14:55:12.235Z,12
2018-09-10T14:56:21.180Z,8
2018-09-10T14:57:30.443Z,8
2018-09-10T14:58:40.212Z,12
2018-09-10T14:59:49.731Z,8
2018-09-10T15:00:59.270Z,8
2018-09-10T15:02:09.029Z,8
2018-09-10T15:03:18.749Z,8
2018-09-10T15:04:28.744Z,12
2018-09-10T15:05:38.231Z,12
2018-09-10T15:06:47.771Z,8
2018-09-10T15:07:57.022Z,8
2018-09-10T15:09:06.282Z,12
2018-09-10T15:10:15.431Z,12
2018-09-10T15:11:25.166Z,12
2018-09-10T15:12:34.597Z,8
2018-09-10T15:13:43.768Z,12
2018-09-10T15:14:53.495Z,12
2018-09-10T15:16:02.224Z,8
2018-09-10T15:17:11.179Z,12
2018-09-10T15:18:20.802Z,8
2018-09-10T15:19:30.887Z,8
2018-09-10T15:20:40.363Z,8
2018-09-10T15:21:49.593Z,8
2018-09-10T15:22:59.154Z,12
2018-09-10T15:24:08.650Z,8
2018-09-10T15:25:17.576Z,8
2018-09-10T15:26:26.757Z,8
2018-09-10T15:27:36.207Z,8
2018-09-10T15:28:45.654Z,8
2018-09-10T15:29:55.080Z,8
2018-09-10T15:31:04.506Z,8
2018-09-10T15:32:13.943Z,4
2018-09-10T15:33:23.708Z,8
2018-09-10T15:34:33.347Z,8
2018-09-10T15:35:43.156Z,8
2018-09-10T15:36:52.096Z,8
2018-09-10T15:38:01.803Z,8
2018-09-10T15:39:11.292Z,4
2018-09-10T15:40:20.768Z,4
2018-09-10T15:41:29.714Z,4
2018-09-10T15:42:38.953Z,8
2018-09-10T15:43:48.644Z,8
2018-09-10T15:44:58.400Z,8
2018-09-10T15:46:07.598Z,8
2018-09-10T15:47:17.541Z,8
2018-09-10T15:48:27.563Z,8
2018-09-10T15:49:37.532Z,8
2018-09-10T15:50:47.022Z,8
2018-09-10T15:51:56.544Z,8
2018-09-10T15:53:06.299Z,8
2018-09-10T15:54:16.045Z,8
2018-09-10T15:55:25.771Z,4
2018-09-10T15:56:35.484Z,4
2018-09-10T15:57:44.711Z,4
2018-09-10T15:58:54.252Z,8
2018-09-10T16:00:04.557Z,8
2018-09-10T16:01:13.794Z,8
2018-09-10T16:02:22.713Z,8
2018-09-10T16:03:33.119Z,8
2018-09-10T16:04:42.623Z,8
2018-09-10T16:05:52.213Z,4
2018-09-10T16:07:02.203Z,4
2018-09-10T16:08:11.723Z,4
2018-09-10T16:09:21.469Z,4
2018-09-10T16:10:31.157Z,4
2018-09-10T16:11:40.609Z,4
2018-09-10T16:12:50.661Z,4
2018-09-10T16:14:00.120Z,4
2018-09-10T16:15:09.620Z,4
2018-09-10T16:16:19.320Z,4
2018-09-10T16:17:28.491Z,4
2018-09-10T16:18:38.216Z,4
2018-09-10T16:19:47.955Z,4
2018-09-10T16:20:56.885Z,0
2018-09-10T16:22:05.803Z,4
2018-09-10T16:23:14.772Z,4
2018-09-10T16:24:24.034Z,0
2018-09-10T16:25:33.258Z,4
2018-09-10T16:26:42.234Z,4
2018-09-10T16:27:51.414Z,4
2018-09-10T16:29:01.116Z,4
2018-09-10T16:30:10.037Z,4
2018-09-10T16:31:19.734Z,4
2018-09-10T16:32:29.167Z,4
2018-09-10T16:33:38.707Z,4
2018-09-10T16:34:48.440Z,4
2018-09-10T16:35:57.997Z,4
2018-09-10T16:37:07.716Z,4
2018-09-10T16:38:16.803Z,0
2018-09-10T16:39:26.545Z,0
2018-09-10T16:40:36.245Z,0
2018-09-10T16:41:45.716Z,0
2018-09-10T16:42:55.156Z,0
2018-09-10T16:44:04.130Z,0
2018-09-10T16:45:14.116Z,0
2018-09-10T16:46:23.584Z,0
2018-09-10T16:47:33.075Z,4
2018-09-10T16:48:43.144Z,0
2018-09-10T16:49:52.700Z,4
2018-09-10T16:51:02.249Z,4
2018-09-10T16:52:12.262Z,4
2018-09-10T16:53:21.867Z,4
2018-09-10T16:54:33.552Z,4